sensor_id;sensor_type;location;lat;lon;timestamp;pressure;altitude;pressure_sealevel;temperature;humidity
54389;BME280;40975;50.390;8.640;2023-04-25T00:02:20;98370.28;;;7.24;100.00
54389;BME280;40975;50.390;8.640;2023-04-25T00:04:45;98366.00;;;7.23;100.00
54389;BME280;40975;50.390;8.640;2023-04-25T00:07:11;98370.13;;;7.26;100.00
54389;BME280;40975;50.390;8.640;2023-04-25T00:09:37;98359.91;;;7.23;100.00
54389;BME280;40975;50.390;8.640;2023-04-25T00:12:03;98358.66;;;7.17;100.00
54389;BME280;40975;50.390;8.640;2023-04-25T00:14:29;98349.19;;;7.24;100.00
54389;BME280;40975;50.390;8.640;2023-04-25T00:16:54;98360.56;;;7.25;100.00
54389;BME280;40975;50.390;8.640;2023-04-25T00:19:20;98362.81;;;7.20;100.00
54389;BME280;40975;50.390;8.640;2023-04-25T00:21:45;98364.22;;;7.14;100.00
54389;BME280;40975;50.390;8.640;2023-04-25T00:24:12;98361.31;;;7.17;100.00
54389;BME280;40975;50.390;8.640;2023-04-25T00:26:37;98365.72;;;7.16;100.00
54389;BME280;40975;50.390;8.640;2023-04-25T00:29:03;98368.53;;;7.15;100.00
54389;BME280;40975;50.390;8.640;2023-04-25T00:31:28;98370.03;;;7.18;100.00
54389;BME280;40975;50.390;8.640;2023-04-25T00:33:54;98367.81;;;7.13;100.00
54389;BME280;40975;50.390;8.640;2023-04-25T00:36:19;98370.31;;;7.14;100.00
54389;BME280;40975;50.390;8.640;2023-04-25T00:38:45;98367.81;;;7.13;100.00
54389;BME280;40975;50.390;8.640;2023-04-25T00:41:11;98371.88;;;7.07;100.00
54389;BME280;40975;50.390;8.640;2023-04-25T00:43:37;98370.63;;;7.11;100.00
54389;BME280;40975;50.390;8.640;2023-04-25T00:46:03;98368.09;;;7.10;100.00
54389;BME280;40975;50.390;8.640;2023-04-25T00:48:28;98367.97;;;7.11;100.00
54389;BME280;40975;50.390;8.640;2023-04-25T00:50:56;98371.44;;;7.12;100.00
54389;BME280;40975;50.390;8.640;2023-04-25T00:53:24;98371.44;;;7.12;100.00
54389;BME280;40975;50.390;8.640;2023-04-25T00:55:50;98364.09;;;7.06;100.00
54389;BME280;40975;50.390;8.640;2023-04-25T00:58:19;98368.25;;;7.08;100.00
54389;BME280;40975;50.390;8.640;2023-04-25T01:00:46;98374.50;;;7.07;100.00
54389;BME280;40975;50.390;8.640;2023-04-25T01:03:12;98365.63;;;7.08;100.00
54389;BME280;40975;50.390;8.640;2023-04-25T01:05:40;98359.78;;;7.05;100.00
54389;BME280;40975;50.390;8.640;2023-04-25T01:08:06;98362.28;;;7.06;100.00
54389;BME280;40975;50.390;8.640;2023-04-25T01:10:32;98362.97;;;7.08;100.00
54389;BME280;40975;50.390;8.640;2023-04-25T01:12:57;98364.38;;;7.03;100.00
54389;BME280;40975;50.390;8.640;2023-04-25T01:15:23;98365.06;;;7.05;100.00
54389;BME280;40975;50.390;8.640;2023-04-25T01:17:48;98372.44;;;7.01;100.00
54389;BME280;40975;50.390;8.640;2023-04-25T01:20:14;98367.59;;;6.96;100.00
54389;BME280;40975;50.390;8.640;2023-04-25T01:22:42;98365.78;;;6.97;100.00
54389;BME280;40975;50.390;8.640;2023-04-25T01:25:08;98362.88;;;6.90;100.00
54389;BME280;40975;50.390;8.640;2023-04-25T01:27:33;98361.19;;;6.89;100.00
54389;BME280;40975;50.390;8.640;2023-04-25T01:30:00;98364.69;;;6.90;100.00
54389;BME280;40975;50.390;8.640;2023-04-25T01:32:26;98344.56;;;6.79;100.00
54389;BME280;40975;50.390;8.640;2023-04-25T01:34:52;98360.25;;;6.80;100.00
54389;BME280;40975;50.390;8.640;2023-04-25T01:37:18;98359.03;;;6.75;100.00
54389;BME280;40975;50.390;8.640;2023-04-25T01:39:44;98362.19;;;6.78;100.00
54389;BME280;40975;50.390;8.640;2023-04-25T01:42:10;98363.03;;;6.79;100.00
54389;BME280;40975;50.390;8.640;2023-04-25T01:44:35;98361.22;;;6.79;100.00
54389;BME280;40975;50.390;8.640;2023-04-25T01:47:00;98357.91;;;6.77;100.00
54389;BME280;40975;50.390;8.640;2023-04-25T01:49:26;98355.84;;;6.71;100.00
54389;BME280;40975;50.390;8.640;2023-04-25T01:51:52;98367.63;;;6.67;100.00
54389;BME280;40975;50.390;8.640;2023-04-25T01:54:18;98360.41;;;6.69;100.00
54389;BME280;40975;50.390;8.640;2023-04-25T01:56:50;98356.94;;;6.68;100.00
54389;BME280;40975;50.390;8.640;2023-04-25T01:59:15;98358.03;;;6.66;100.00
54389;BME280;40975;50.390;8.640;2023-04-25T02:02:05;98362.63;;;6.64;100.00
54389;BME280;40975;50.390;8.640;2023-04-25T02:04:32;98353.34;;;6.60;100.00
54389;BME280;40975;50.390;8.640;2023-04-25T02:06:57;98359.72;;;6.57;100.00
54389;BME280;40975;50.390;8.640;2023-04-25T02:09:29;98356.41;;;6.55;100.00
54389;BME280;40975;50.390;8.640;2023-04-25T02:11:55;98350.69;;;6.50;100.00
54389;BME280;40975;50.390;8.640;2023-04-25T02:14:33;98360.56;;;6.48;100.00
54389;BME280;40975;50.390;8.640;2023-04-25T02:17:06;98356.94;;;6.49;100.00
54389;BME280;40975;50.390;8.640;2023-04-25T02:19:32;98364.44;;;6.44;100.00
54389;BME280;40975;50.390;8.640;2023-04-25T02:21:57;98365.25;;;6.44;100.00
54389;BME280;40975;50.390;8.640;2023-04-25T02:24:23;98370.53;;;6.44;100.00
54389;BME280;40975;50.390;8.640;2023-04-25T02:26:48;98366.13;;;6.45;100.00
54389;BME280;40975;50.390;8.640;2023-04-25T02:29:15;98376.53;;;6.36;100.00
54389;BME280;40975;50.390;8.640;2023-04-25T02:31:41;98370.94;;;6.40;100.00
54389;BME280;40975;50.390;8.640;2023-04-25T02:34:07;98381.25;;;6.33;100.00
54389;BME280;40975;50.390;8.640;2023-04-25T02:36:35;98378.88;;;6.30;100.00
54389;BME280;40975;50.390;8.640;2023-04-25T02:39:01;98378.31;;;6.26;100.00
54389;BME280;40975;50.390;8.640;2023-04-25T02:41:26;98378.03;;;6.19;100.00
54389;BME280;40975;50.390;8.640;2023-04-25T02:43:54;98368.88;;;6.14;100.00
54389;BME280;40975;50.390;8.640;2023-04-25T02:46:19;98380.22;;;6.14;100.00
54389;BME280;40975;50.390;8.640;2023-04-25T02:48:45;98372.88;;;6.08;100.00
54389;BME280;40975;50.390;8.640;2023-04-25T02:51:11;98373.53;;;6.00;100.00
54389;BME280;40975;50.390;8.640;2023-04-25T02:53:36;98374.88;;;5.95;100.00
54389;BME280;40975;50.390;8.640;2023-04-25T02:56:01;98377.38;;;5.86;100.00
54389;BME280;40975;50.390;8.640;2023-04-25T02:58:27;98381.81;;;5.86;100.00
54389;BME280;40975;50.390;8.640;2023-04-25T03:00:53;98384.00;;;5.71;100.00
54389;BME280;40975;50.390;8.640;2023-04-25T03:03:19;98374.13;;;5.63;100.00
54389;BME280;40975;50.390;8.640;2023-04-25T03:05:51;98382.81;;;5.54;100.00
54389;BME280;40975;50.390;8.640;2023-04-25T03:08:20;98380.84;;;5.46;100.00
54389;BME280;40975;50.390;8.640;2023-04-25T03:10:45;98366.38;;;5.31;100.00
54389;BME280;40975;50.390;8.640;2023-04-25T03:13:13;98376.19;;;5.28;100.00
54389;BME280;40975;50.390;8.640;2023-04-25T03:15:41;98381.03;;;5.23;100.00
54389;BME280;40975;50.390;8.640;2023-04-25T03:18:06;98378.91;;;5.17;100.00
54389;BME280;40975;50.390;8.640;2023-04-25T03:20:31;98376.81;;;5.11;100.00
54389;BME280;40975;50.390;8.640;2023-04-25T03:22:57;98375.66;;;5.04;100.00
54389;BME280;40975;50.390;8.640;2023-04-25T03:25:22;98374.31;;;4.88;100.00
54389;BME280;40975;50.390;8.640;2023-04-25T03:27:48;98379.50;;;4.78;100.00
54389;BME280;40975;50.390;8.640;2023-04-25T03:30:13;98379.91;;;4.74;100.00
54389;BME280;40975;50.390;8.640;2023-04-25T03:32:40;98378.47;;;4.70;100.00
54389;BME280;40975;50.390;8.640;2023-04-25T03:35:06;98392.13;;;4.63;100.00
54389;BME280;40975;50.390;8.640;2023-04-25T03:37:32;98387.25;;;4.59;100.00
54389;BME280;40975;50.390;8.640;2023-04-25T03:39:57;98386.78;;;4.54;100.00
54389;BME280;40975;50.390;8.640;2023-04-25T03:42:28;98390.94;;;4.56;100.00
54389;BME280;40975;50.390;8.640;2023-04-25T03:44:53;98393.25;;;4.49;100.00
54389;BME280;40975;50.390;8.640;2023-04-25T03:47:19;98389.22;;;4.45;100.00
54389;BME280;40975;50.390;8.640;2023-04-25T03:49:46;98399.88;;;4.44;100.00
54389;BME280;40975;50.390;8.640;2023-04-25T03:52:12;98399.88;;;4.44;100.00
54389;BME280;40975;50.390;8.640;2023-04-25T03:54:39;98403.59;;;4.30;100.00
54389;BME280;40975;50.390;8.640;2023-04-25T03:57:11;98403.59;;;4.30;100.00
54389;BME280;40975;50.390;8.640;2023-04-25T03:59:38;98400.75;;;4.22;100.00
54389;BME280;40975;50.390;8.640;2023-04-25T04:02:04;98410.66;;;4.18;100.00
54389;BME280;40975;50.390;8.640;2023-04-25T04:04:32;98416.63;;;4.20;100.00
54389;BME280;40975;50.390;8.640;2023-04-25T04:06:58;98418.78;;;4.15;100.00
54389;BME280;40975;50.390;8.640;2023-04-25T04:09:27;98416.28;;;4.13;100.00
54389;BME280;40975;50.390;8.640;2023-04-25T04:11:53;98415.00;;;4.08;100.00
54389;BME280;40975;50.390;8.640;2023-04-25T04:14:19;98422.16;;;4.05;100.00
54389;BME280;40975;50.390;8.640;2023-04-25T04:16:46;98428.63;;;4.01;100.00
54389;BME280;40975;50.390;8.640;2023-04-25T04:19:12;98427.66;;;4.02;100.00
54389;BME280;40975;50.390;8.640;2023-04-25T04:21:42;98429.09;;;3.95;100.00
54389;BME280;40975;50.390;8.640;2023-04-25T04:24:09;98431.03;;;3.93;100.00
54389;BME280;40975;50.390;8.640;2023-04-25T04:26:46;98435.19;;;3.84;100.00
54389;BME280;40975;50.390;8.640;2023-04-25T04:29:29;98432.34;;;3.87;100.00
54389;BME280;40975;50.390;8.640;2023-04-25T04:31:59;98436.00;;;3.85;100.00
54389;BME280;40975;50.390;8.640;2023-04-25T04:34:26;98436.88;;;3.85;100.00
54389;BME280;40975;50.390;8.640;2023-04-25T04:36:52;98441.16;;;3.86;100.00
54389;BME280;40975;50.390;8.640;2023-04-25T04:39:18;98432.94;;;3.91;100.00
54389;BME280;40975;50.390;8.640;2023-04-25T04:41:57;98433.50;;;3.95;100.00
54389;BME280;40975;50.390;8.640;2023-04-25T04:44:37;98435.41;;;3.93;100.00
54389;BME280;40975;50.390;8.640;2023-04-25T04:47:24;98433.28;;;3.98;100.00
54389;BME280;40975;50.390;8.640;2023-04-25T04:50:01;98441.16;;;3.98;100.00
54389;BME280;40975;50.390;8.640;2023-04-25T04:52:57;98436.38;;;3.92;100.00
54389;BME280;40975;50.390;8.640;2023-04-25T04:55:41;98438.16;;;4.02;100.00
54389;BME280;40975;50.390;8.640;2023-04-25T04:58:20;98436.50;;;4.01;100.00
54389;BME280;40975;50.390;8.640;2023-04-25T05:00:57;98439.72;;;4.05;100.00
54389;BME280;40975;50.390;8.640;2023-04-25T05:03:32;98446.84;;;4.14;100.00
54389;BME280;40975;50.390;8.640;2023-04-25T05:06:06;98447.66;;;4.26;100.00
54389;BME280;40975;50.390;8.640;2023-04-25T05:09:07;98448.72;;;4.35;100.00
54389;BME280;40975;50.390;8.640;2023-04-25T05:11:51;98460.41;;;4.42;100.00
54389;BME280;40975;50.390;8.640;2023-04-25T05:14:35;98455.25;;;4.52;100.00
54389;BME280;40975;50.390;8.640;2023-04-25T05:17:15;98454.59;;;4.60;100.00
54389;BME280;40975;50.390;8.640;2023-04-25T05:19:58;98467.59;;;4.73;100.00
54389;BME280;40975;50.390;8.640;2023-04-25T05:22:33;98466.84;;;4.82;100.00
54389;BME280;40975;50.390;8.640;2023-04-25T05:25:21;98463.84;;;4.87;100.00
54389;BME280;40975;50.390;8.640;2023-04-25T05:28:10;98467.97;;;5.01;100.00
54389;BME280;40975;50.390;8.640;2023-04-25T05:30:39;98463.25;;;5.25;100.00
54389;BME280;40975;50.390;8.640;2023-04-25T05:33:16;98460.56;;;5.37;100.00
54389;BME280;40975;50.390;8.640;2023-04-25T05:35:43;98456.19;;;5.47;100.00
54389;BME280;40975;50.390;8.640;2023-04-25T05:38:10;98457.66;;;5.61;100.00
54389;BME280;40975;50.390;8.640;2023-04-25T05:41:01;98464.16;;;5.88;100.00
54389;BME280;40975;50.390;8.640;2023-04-25T05:43:52;98471.75;;;6.12;100.00
54389;BME280;40975;50.390;8.640;2023-04-25T05:46:41;98465.13;;;6.28;100.00
54389;BME280;40975;50.390;8.640;2023-04-25T05:49:24;98442.66;;;6.33;100.00
54389;BME280;40975;50.390;8.640;2023-04-25T05:51:53;98461.69;;;6.37;100.00
54389;BME280;40975;50.390;8.640;2023-04-25T05:54:42;98466.44;;;6.43;100.00
54389;BME280;40975;50.390;8.640;2023-04-25T05:57:08;98471.56;;;6.74;100.00
54389;BME280;40975;50.390;8.640;2023-04-25T05:59:33;98472.69;;;7.11;100.00
54389;BME280;40975;50.390;8.640;2023-04-25T06:01:59;98470.50;;;7.73;100.00
54389;BME280;40975;50.390;8.640;2023-04-25T06:04:30;98482.44;;;8.05;98.24
54389;BME280;40975;50.390;8.640;2023-04-25T06:06:55;98475.34;;;8.62;94.68
54389;BME280;40975;50.390;8.640;2023-04-25T06:09:21;98480.03;;;9.22;90.63
54389;BME280;40975;50.390;8.640;2023-04-25T06:11:46;98446.84;;;8.92;90.31
54389;BME280;40975;50.390;8.640;2023-04-25T06:14:12;98492.34;;;9.13;88.05
54389;BME280;40975;50.390;8.640;2023-04-25T06:16:43;98492.75;;;9.00;87.85
54389;BME280;40975;50.390;8.640;2023-04-25T06:19:09;98494.63;;;9.08;88.87
54389;BME280;40975;50.390;8.640;2023-04-25T06:21:35;98490.66;;;9.30;88.19
54389;BME280;40975;50.390;8.640;2023-04-25T06:24:00;98492.41;;;10.35;85.96
54389;BME280;40975;50.390;8.640;2023-04-25T06:26:27;98478.72;;;10.14;81.62
54389;BME280;40975;50.390;8.640;2023-04-25T06:28:52;98488.63;;;10.38;80.74
54389;BME280;40975;50.390;8.640;2023-04-25T06:31:18;98487.19;;;10.60;79.98
54389;BME280;40975;50.390;8.640;2023-04-25T06:33:44;98486.91;;;10.29;82.45
54389;BME280;40975;50.390;8.640;2023-04-25T06:36:10;98479.72;;;10.13;82.28
54389;BME280;40975;50.390;8.640;2023-04-25T06:38:36;98483.16;;;10.05;82.07
54389;BME280;40975;50.390;8.640;2023-04-25T06:41:02;98471.00;;;9.86;83.74
54389;BME280;40975;50.390;8.640;2023-04-25T06:43:33;98488.13;;;9.47;85.53
54389;BME280;40975;50.390;8.640;2023-04-25T06:46:02;98504.00;;;9.65;89.17
54389;BME280;40975;50.390;8.640;2023-04-25T06:48:29;98495.88;;;10.95;83.88
54389;BME280;40975;50.390;8.640;2023-04-25T06:50:54;98492.16;;;12.04;77.38
54389;BME280;40975;50.390;8.640;2023-04-25T06:53:20;98489.75;;;12.57;73.88
54389;BME280;40975;50.390;8.640;2023-04-25T06:55:50;98489.25;;;13.99;68.23
54389;BME280;40975;50.390;8.640;2023-04-25T06:58:18;98496.59;;;14.27;66.00
54389;BME280;40975;50.390;8.640;2023-04-25T07:01:06;98516.09;;;15.16;61.63
54389;BME280;40975;50.390;8.640;2023-04-25T07:03:32;98522.13;;;14.82;60.28
54389;BME280;40975;50.390;8.640;2023-04-25T07:06:02;98525.56;;;14.75;62.85
54389;BME280;40975;50.390;8.640;2023-04-25T07:08:28;98536.41;;;14.74;61.85
54389;BME280;40975;50.390;8.640;2023-04-25T07:10:54;98541.16;;;13.59;64.04
54389;BME280;40975;50.390;8.640;2023-04-25T07:13:19;98535.03;;;11.92;68.58
54389;BME280;40975;50.390;8.640;2023-04-25T07:15:45;98545.88;;;11.41;74.78
54389;BME280;40975;50.390;8.640;2023-04-25T07:18:12;98548.63;;;10.90;79.82
54389;BME280;40975;50.390;8.640;2023-04-25T07:20:38;98539.41;;;10.51;80.52
54389;BME280;40975;50.390;8.640;2023-04-25T07:23:03;98538.34;;;10.09;81.81
54389;BME280;40975;50.390;8.640;2023-04-25T07:25:29;98545.69;;;10.16;81.80
54389;BME280;40975;50.390;8.640;2023-04-25T07:27:56;98547.47;;;10.07;82.50
54389;BME280;40975;50.390;8.640;2023-04-25T07:30:21;98552.34;;;9.93;83.16
54389;BME280;40975;50.390;8.640;2023-04-25T07:32:48;98548.66;;;9.60;82.16
54389;BME280;40975;50.390;8.640;2023-04-25T07:35:13;98563.84;;;9.31;83.87
54389;BME280;40975;50.390;8.640;2023-04-25T07:37:39;98554.16;;;9.22;84.15
54389;BME280;40975;50.390;8.640;2023-04-25T07:40:10;98554.16;;;9.22;86.06
54389;BME280;40975;50.390;8.640;2023-04-25T07:42:39;98550.56;;;8.95;89.16
54389;BME280;40975;50.390;8.640;2023-04-25T07:45:06;98561.56;;;9.00;87.16
54389;BME280;40975;50.390;8.640;2023-04-25T07:47:31;98568.28;;;8.95;87.80
54389;BME280;40975;50.390;8.640;2023-04-25T07:49:57;98563.75;;;9.05;88.65
54389;BME280;40975;50.390;8.640;2023-04-25T07:52:23;98558.97;;;9.09;88.86
54389;BME280;40975;50.390;8.640;2023-04-25T07:54:54;98568.50;;;9.56;87.69
54389;BME280;40975;50.390;8.640;2023-04-25T07:57:27;98568.66;;;10.33;83.25
54389;BME280;40975;50.390;8.640;2023-04-25T07:59:54;98564.97;;;10.52;83.38
54389;BME280;40975;50.390;8.640;2023-04-25T08:02:21;98581.41;;;11.90;76.55
54389;BME280;40975;50.390;8.640;2023-04-25T08:04:46;98580.25;;;11.76;74.59
54389;BME280;40975;50.390;8.640;2023-04-25T08:07:15;98591.53;;;11.37;74.74
54389;BME280;40975;50.390;8.640;2023-04-25T08:09:48;98596.75;;;10.87;75.66
54389;BME280;40975;50.390;8.640;2023-04-25T08:12:21;98584.47;;;10.78;77.72
54389;BME280;40975;50.390;8.640;2023-04-25T08:14:47;98580.13;;;10.77;76.81
54389;BME280;40975;50.390;8.640;2023-04-25T08:17:12;98584.28;;;10.79;78.12
54389;BME280;40975;50.390;8.640;2023-04-25T08:19:40;98592.19;;;10.63;80.42
54389;BME280;40975;50.390;8.640;2023-04-25T08:22:07;98595.22;;;10.15;79.70
54389;BME280;40975;50.390;8.640;2023-04-25T08:24:43;98595.81;;;10.01;83.69
54389;BME280;40975;50.390;8.640;2023-04-25T08:27:10;98598.00;;;10.05;84.57
54389;BME280;40975;50.390;8.640;2023-04-25T08:29:36;98605.19;;;10.13;84.14
54389;BME280;40975;50.390;8.640;2023-04-25T08:32:02;98605.69;;;10.17;82.01
54389;BME280;40975;50.390;8.640;2023-04-25T08:34:28;98606.31;;;10.10;80.04
54389;BME280;40975;50.390;8.640;2023-04-25T08:36:54;98599.53;;;10.16;79.88
54389;BME280;40975;50.390;8.640;2023-04-25T08:39:29;98601.53;;;10.40;81.28
54389;BME280;40975;50.390;8.640;2023-04-25T08:42:17;98616.63;;;11.42;76.53
54389;BME280;40975;50.390;8.640;2023-04-25T08:44:45;98615.28;;;11.55;77.42
54389;BME280;40975;50.390;8.640;2023-04-25T08:47:11;98613.78;;;11.69;71.70
54389;BME280;40975;50.390;8.640;2023-04-25T08:49:45;98610.78;;;11.39;73.43
54389;BME280;40975;50.390;8.640;2023-04-25T08:52:12;98624.09;;;12.78;71.72
54389;BME280;40975;50.390;8.640;2023-04-25T08:54:42;98626.06;;;14.76;61.54
54389;BME280;40975;50.390;8.640;2023-04-25T08:57:10;98631.41;;;14.23;61.72
54389;BME280;40975;50.390;8.640;2023-04-25T08:59:35;98638.19;;;14.64;61.57
54389;BME280;40975;50.390;8.640;2023-04-25T09:02:04;98637.63;;;13.86;60.99
54389;BME280;40975;50.390;8.640;2023-04-25T09:04:31;98650.09;;;13.38;63.69
54389;BME280;40975;50.390;8.640;2023-04-25T09:06:57;98642.53;;;12.31;65.33
54389;BME280;40975;50.390;8.640;2023-04-25T09:09:23;98647.06;;;12.06;67.72
54389;BME280;40975;50.390;8.640;2023-04-25T09:11:49;98650.38;;;11.75;69.03
54389;BME280;40975;50.390;8.640;2023-04-25T09:14:18;98653.81;;;11.42;69.24
54389;BME280;40975;50.390;8.640;2023-04-25T09:17:11;98659.31;;;10.89;73.30
54389;BME280;40975;50.390;8.640;2023-04-25T09:19:39;98662.00;;;10.37;75.59
54389;BME280;40975;50.390;8.640;2023-04-25T09:22:09;98664.13;;;9.89;74.94
54389;BME280;40975;50.390;8.640;2023-04-25T09:24:37;98667.97;;;9.68;77.80
54389;BME280;40975;50.390;8.640;2023-04-25T09:27:07;98679.91;;;9.36;78.53
54389;BME280;40975;50.390;8.640;2023-04-25T09:29:35;98672.66;;;9.10;81.24
54389;BME280;40975;50.390;8.640;2023-04-25T09:34:43;98687.31;;;9.05;86.20
54389;BME280;40975;50.390;8.640;2023-04-25T09:37:11;98690.16;;;9.21;90.42
54389;BME280;40975;50.390;8.640;2023-04-25T09:40:09;98700.84;;;9.29;88.55
54389;BME280;40975;50.390;8.640;2023-04-25T09:42:49;98711.88;;;9.71;86.79
54389;BME280;40975;50.390;8.640;2023-04-25T09:45:15;98708.03;;;10.27;83.43
54389;BME280;40975;50.390;8.640;2023-04-25T09:47:43;98707.59;;;10.93;75.77
54389;BME280;40975;50.390;8.640;2023-04-25T09:50:14;98720.16;;;11.17;74.33
54389;BME280;40975;50.390;8.640;2023-04-25T09:52:42;98711.63;;;10.63;71.22
54389;BME280;40975;50.390;8.640;2023-04-25T09:55:15;98712.28;;;10.99;71.41
54389;BME280;40975;50.390;8.640;2023-04-25T09:57:43;98712.38;;;11.24;71.75
54389;BME280;40975;50.390;8.640;2023-04-25T10:00:11;98712.66;;;11.04;69.21
54389;BME280;40975;50.390;8.640;2023-04-25T10:02:42;98725.31;;;11.19;71.80
54389;BME280;40975;50.390;8.640;2023-04-25T10:05:23;98720.16;;;10.83;71.41
54389;BME280;40975;50.390;8.640;2023-04-25T10:07:50;98719.16;;;10.31;68.25
54389;BME280;40975;50.390;8.640;2023-04-25T10:10:17;98719.25;;;10.21;69.41
54389;BME280;40975;50.390;8.640;2023-04-25T10:12:44;98715.03;;;10.55;69.25
54389;BME280;40975;50.390;8.640;2023-04-25T10:15:10;98726.91;;;11.03;72.26
54389;BME280;40975;50.390;8.640;2023-04-25T10:17:37;98721.97;;;11.68;65.51
54389;BME280;40975;50.390;8.640;2023-04-25T10:20:03;98718.78;;;13.83;62.66
54389;BME280;40975;50.390;8.640;2023-04-25T10:22:36;98735.81;;;14.28;62.42
54389;BME280;40975;50.390;8.640;2023-04-25T10:25:02;98732.19;;;13.98;58.47
54389;BME280;40975;50.390;8.640;2023-04-25T10:27:29;98721.53;;;13.75;57.34
54389;BME280;40975;50.390;8.640;2023-04-25T10:30:02;98733.50;;;13.79;58.38
54389;BME280;40975;50.390;8.640;2023-04-25T10:32:30;98734.03;;;13.43;59.61
54389;BME280;40975;50.390;8.640;2023-04-25T10:34:56;98729.88;;;13.00;58.92
54389;BME280;40975;50.390;8.640;2023-04-25T10:37:21;98730.78;;;12.59;59.80
54389;BME280;40975;50.390;8.640;2023-04-25T10:39:47;98728.63;;;12.55;61.54
54389;BME280;40975;50.390;8.640;2023-04-25T10:42:12;98737.09;;;12.75;62.24
54389;BME280;40975;50.390;8.640;2023-04-25T10:44:38;98729.97;;;12.67;61.33
54389;BME280;40975;50.390;8.640;2023-04-25T10:47:07;98738.31;;;12.39;62.84
54389;BME280;40975;50.390;8.640;2023-04-25T10:49:42;98744.63;;;12.38;64.14
54389;BME280;40975;50.390;8.640;2023-04-25T10:54:52;98745.75;;;11.94;64.92
54389;BME280;40975;50.390;8.640;2023-04-25T10:57:37;98737.81;;;12.03;62.91
54389;BME280;40975;50.390;8.640;2023-04-25T11:02:29;98739.31;;;12.38;61.12
54389;BME280;40975;50.390;8.640;2023-04-25T11:04:54;98736.78;;;12.62;62.29
54389;BME280;40975;50.390;8.640;2023-04-25T11:07:35;98735.91;;;13.34;63.40
54389;BME280;40975;50.390;8.640;2023-04-25T11:10:03;98738.84;;;14.02;59.55
54389;BME280;40975;50.390;8.640;2023-04-25T11:12:30;98737.38;;;13.76;56.50
54389;BME280;40975;50.390;8.640;2023-04-25T11:15:03;98734.06;;;13.34;56.87
54389;BME280;40975;50.390;8.640;2023-04-25T11:17:28;98730.75;;;13.24;58.39
54389;BME280;40975;50.390;8.640;2023-04-25T11:19:54;98733.75;;;12.81;57.13
54389;BME280;40975;50.390;8.640;2023-04-25T11:22:21;98734.69;;;12.32;59.47
54389;BME280;40975;50.390;8.640;2023-04-25T11:24:46;98739.06;;;11.57;59.15
54389;BME280;40975;50.390;8.640;2023-04-25T11:27:12;98740.16;;;10.95;61.24
54389;BME280;40975;50.390;8.640;2023-04-25T11:29:38;98746.47;;;10.68;63.37
54389;BME280;40975;50.390;8.640;2023-04-25T11:32:03;98738.25;;;10.53;63.04
54389;BME280;40975;50.390;8.640;2023-04-25T11:34:30;98742.16;;;10.22;63.79
54389;BME280;40975;50.390;8.640;2023-04-25T11:36:56;98739.88;;;10.09;65.53
54389;BME280;40975;50.390;8.640;2023-04-25T11:39:24;98752.13;;;10.10;67.77
54389;BME280;40975;50.390;8.640;2023-04-25T11:41:50;98751.53;;;9.99;66.34
54389;BME280;40975;50.390;8.640;2023-04-25T11:44:16;98749.81;;;10.07;67.85
54389;BME280;40975;50.390;8.640;2023-04-25T11:46:43;98753.63;;;10.31;69.63
54389;BME280;40975;50.390;8.640;2023-04-25T11:49:08;98756.44;;;10.30;65.85
54389;BME280;40975;50.390;8.640;2023-04-25T11:51:45;98754.41;;;10.23;66.41
54389;BME280;40975;50.390;8.640;2023-04-25T11:54:12;98769.66;;;10.21;65.30
54389;BME280;40975;50.390;8.640;2023-04-25T11:56:41;98768.91;;;10.11;64.56
54389;BME280;40975;50.390;8.640;2023-04-25T11:59:07;98775.09;;;10.02;66.67
54389;BME280;40975;50.390;8.640;2023-04-25T12:01:34;98762.22;;;10.07;68.10
54389;BME280;40975;50.390;8.640;2023-04-25T12:04:11;98780.91;;;10.23;66.74
54389;BME280;40975;50.390;8.640;2023-04-25T12:06:37;98773.97;;;10.40;65.90
54389;BME280;40975;50.390;8.640;2023-04-25T12:09:10;98770.50;;;10.93;63.96
54389;BME280;40975;50.390;8.640;2023-04-25T12:11:47;98779.03;;;11.39;64.54
54389;BME280;40975;50.390;8.640;2023-04-25T12:14:20;98775.63;;;11.72;60.79
54389;BME280;40975;50.390;8.640;2023-04-25T12:16:48;98775.91;;;12.61;62.08
54389;BME280;40975;50.390;8.640;2023-04-25T12:19:17;98774.00;;;13.51;61.05
54389;BME280;40975;50.390;8.640;2023-04-25T12:21:43;98775.84;;;13.82;59.67
54389;BME280;40975;50.390;8.640;2023-04-25T12:24:22;98774.91;;;13.66;59.81
54389;BME280;40975;50.390;8.640;2023-04-25T12:27:03;98768.69;;;13.34;58.69
54389;BME280;40975;50.390;8.640;2023-04-25T12:29:30;98772.44;;;13.17;59.83
54389;BME280;40975;50.390;8.640;2023-04-25T12:31:56;98765.75;;;12.65;60.09
54389;BME280;40975;50.390;8.640;2023-04-25T12:34:22;98765.53;;;12.74;60.09
54389;BME280;40975;50.390;8.640;2023-04-25T12:36:49;98768.38;;;12.81;60.19
54389;BME280;40975;50.390;8.640;2023-04-25T12:39:18;98761.94;;;12.51;55.95
54389;BME280;40975;50.390;8.640;2023-04-25T12:41:45;98774.81;;;12.95;58.34
54389;BME280;40975;50.390;8.640;2023-04-25T12:44:12;98777.41;;;13.68;59.62
54389;BME280;40975;50.390;8.640;2023-04-25T12:46:38;98776.66;;;14.29;58.06
54389;BME280;40975;50.390;8.640;2023-04-25T12:49:03;98772.88;;;13.45;57.98
54389;BME280;40975;50.390;8.640;2023-04-25T12:51:30;98772.03;;;13.36;58.56
54389;BME280;40975;50.390;8.640;2023-04-25T12:53:55;98780.50;;;13.48;59.13
54389;BME280;40975;50.390;8.640;2023-04-25T12:56:20;98782.03;;;13.34;58.23
54389;BME280;40975;50.390;8.640;2023-04-25T12:58:46;98787.53;;;14.04;58.62
54389;BME280;40975;50.390;8.640;2023-04-25T13:01:13;98786.94;;;13.62;56.23
54389;BME280;40975;50.390;8.640;2023-04-25T13:03:39;98783.13;;;14.11;56.70
54389;BME280;40975;50.390;8.640;2023-04-25T13:06:06;98782.44;;;13.63;55.66
54389;BME280;40975;50.390;8.640;2023-04-25T13:08:32;98784.31;;;14.32;55.94
54389;BME280;40975;50.390;8.640;2023-04-25T13:10:57;98786.66;;;14.73;56.47
54389;BME280;40975;50.390;8.640;2023-04-25T13:13:23;98780.72;;;14.63;54.30
54389;BME280;40975;50.390;8.640;2023-04-25T13:15:48;98775.53;;;14.00;54.77
54389;BME280;40975;50.390;8.640;2023-04-25T13:18:14;98774.63;;;13.53;54.39
54389;BME280;40975;50.390;8.640;2023-04-25T13:20:39;98785.94;;;13.15;57.90